sensor_id;sensor_type;location;lat;lon;timestamp;P1;durP1;ratioP1;P2;durP2;ratioP2
71655;SDS011;59497;48.798;8.816;2022-07-17T00:00:42;3.38;;;2.60;;
71655;SDS011;59497;48.798;8.816;2022-07-17T00:03:08;2.70;;;2.40;;
71655;SDS011;59497;48.798;8.816;2022-07-17T00:05:34;2.97;;;2.33;;
71655;SDS011;59497;48.798;8.816;2022-07-17T00:07:59;3.10;;;2.40;;
71655;SDS011;59497;48.798;8.816;2022-07-17T00:10:24;2.78;;;2.58;;
71655;SDS011;59497;48.798;8.816;2022-07-17T00:12:49;3.10;;;2.63;;
71655;SDS011;59497;48.798;8.816;2022-07-17T00:15:14;3.53;;;2.80;;
71655;SDS011;59497;48.798;8.816;2022-07-17T00:17:40;2.97;;;2.57;;
71655;SDS011;59497;48.798;8.816;2022-07-17T00:20:05;2.70;;;2.50;;
71655;SDS011;59497;48.798;8.816;2022-07-17T00:22:30;3.00;;;2.70;;
71655;SDS011;59497;48.798;8.816;2022-07-17T00:24:56;2.97;;;2.67;;
71655;SDS011;59497;48.798;8.816;2022-07-17T00:27:21;3.00;;;2.40;;
71655;SDS011;59497;48.798;8.816;2022-07-17T00:29:46;2.77;;;2.13;;
71655;SDS011;59497;48.798;8.816;2022-07-17T00:32:11;2.58;;;2.03;;
71655;SDS011;59497;48.798;8.816;2022-07-17T00:34:36;3.70;;;2.30;;
71655;SDS011;59497;48.798;8.816;2022-07-17T00:37:01;3.80;;;2.40;;
71655;SDS011;59497;48.798;8.816;2022-07-17T00:39:27;3.50;;;2.17;;
71655;SDS011;59497;48.798;8.816;2022-07-17T00:41:52;2.97;;;2.70;;
71655;SDS011;59497;48.798;8.816;2022-07-17T00:44:17;2.92;;;2.63;;
71655;SDS011;59497;48.798;8.816;2022-07-17T00:46:42;3.43;;;2.70;;
71655;SDS011;59497;48.798;8.816;2022-07-17T00:49:08;3.83;;;3.27;;
71655;SDS011;59497;48.798;8.816;2022-07-17T00:51:33;3.07;;;2.50;;
71655;SDS011;59497;48.798;8.816;2022-07-17T00:53:58;3.23;;;2.63;;
71655;SDS011;59497;48.798;8.816;2022-07-17T00:56:24;2.80;;;2.60;;
71655;SDS011;59497;48.798;8.816;2022-07-17T00:58:50;3.10;;;2.50;;
71655;SDS011;59497;48.798;8.816;2022-07-17T01:01:15;3.05;;;2.75;;
71655;SDS011;59497;48.798;8.816;2022-07-17T01:03:41;2.90;;;2.40;;
71655;SDS011;59497;48.798;8.816;2022-07-17T01:06:06;3.37;;;2.50;;
71655;SDS011;59497;48.798;8.816;2022-07-17T01:08:32;4.57;;;2.37;;
71655;SDS011;59497;48.798;8.816;2022-07-17T01:10:57;4.47;;;2.70;;
71655;SDS011;59497;48.798;8.816;2022-07-17T01:13:22;3.07;;;2.43;;
71655;SDS011;59497;48.798;8.816;2022-07-17T01:15:47;4.07;;;3.40;;
71655;SDS011;59497;48.798;8.816;2022-07-17T01:18:13;5.00;;;2.80;;
71655;SDS011;59497;48.798;8.816;2022-07-17T01:20:40;3.53;;;2.57;;
71655;SDS011;59497;48.798;8.816;2022-07-17T01:23:06;3.13;;;2.83;;
71655;SDS011;59497;48.798;8.816;2022-07-17T01:25:31;4.15;;;2.75;;
71655;SDS011;59497;48.798;8.816;2022-07-17T01:27:56;3.40;;;3.10;;
71655;SDS011;59497;48.798;8.816;2022-07-17T01:30:22;3.03;;;2.70;;
71655;SDS011;59497;48.798;8.816;2022-07-17T01:32:47;3.40;;;2.80;;
71655;SDS011;59497;48.798;8.816;2022-07-17T01:35:13;4.30;;;3.07;;
71655;SDS011;59497;48.798;8.816;2022-07-17T01:40:07;3.33;;;2.70;;
71655;SDS011;59497;48.798;8.816;2022-07-17T01:42:32;3.47;;;2.67;;
71655;SDS011;59497;48.798;8.816;2022-07-17T01:44:58;3.33;;;3.03;;
71655;SDS011;59497;48.798;8.816;2022-07-17T01:47:23;3.40;;;3.10;;
71655;SDS011;59497;48.798;8.816;2022-07-17T01:49:49;3.97;;;2.63;;
71655;SDS011;59497;48.798;8.816;2022-07-17T01:52:15;3.23;;;2.93;;
71655;SDS011;59497;48.798;8.816;2022-07-17T01:54:40;3.97;;;3.10;;
71655;SDS011;59497;48.798;8.816;2022-07-17T01:57:06;3.25;;;2.95;;
71655;SDS011;59497;48.798;8.816;2022-07-17T01:59:31;3.77;;;2.93;;
71655;SDS011;59497;48.798;8.816;2022-07-17T02:01:56;3.37;;;3.03;;
71655;SDS011;59497;48.798;8.816;2022-07-17T02:04:21;2.77;;;2.57;;
71655;SDS011;59497;48.798;8.816;2022-07-17T02:06:46;3.43;;;2.60;;
71655;SDS011;59497;48.798;8.816;2022-07-17T02:09:12;3.38;;;2.67;;
71655;SDS011;59497;48.798;8.816;2022-07-17T02:11:37;3.30;;;2.85;;
71655;SDS011;59497;48.798;8.816;2022-07-17T02:14:02;3.55;;;3.03;;
71655;SDS011;59497;48.798;8.816;2022-07-17T02:16:27;4.00;;;2.73;;
71655;SDS011;59497;48.798;8.816;2022-07-17T02:18:52;5.87;;;2.83;;
71655;SDS011;59497;48.798;8.816;2022-07-17T02:21:17;3.00;;;2.70;;
71655;SDS011;59497;48.798;8.816;2022-07-17T02:23:43;3.63;;;2.93;;
71655;SDS011;59497;48.798;8.816;2022-07-17T02:26:08;3.25;;;2.83;;
71655;SDS011;59497;48.798;8.816;2022-07-17T02:28:34;3.13;;;2.78;;
71655;SDS011;59497;48.798;8.816;2022-07-17T02:30:59;3.00;;;2.63;;
71655;SDS011;59497;48.798;8.816;2022-07-17T02:33:24;3.33;;;3.00;;
71655;SDS011;59497;48.798;8.816;2022-07-17T02:35:49;4.30;;;3.00;;
71655;SDS011;59497;48.798;8.816;2022-07-17T02:38:15;2.87;;;2.60;;
71655;SDS011;59497;48.798;8.816;2022-07-17T02:40:40;3.40;;;2.93;;
71655;SDS011;59497;48.798;8.816;2022-07-17T02:43:06;3.85;;;2.88;;
71655;SDS011;59497;48.798;8.816;2022-07-17T02:45:32;3.67;;;3.37;;
71655;SDS011;59497;48.798;8.816;2022-07-17T02:47:57;4.03;;;2.88;;
71655;SDS011;59497;48.798;8.816;2022-07-17T02:50:22;2.83;;;2.60;;
71655;SDS011;59497;48.798;8.816;2022-07-17T02:52:47;3.30;;;2.77;;
71655;SDS011;59497;48.798;8.816;2022-07-17T02:55:14;4.80;;;2.80;;
71655;SDS011;59497;48.798;8.816;2022-07-17T02:57:39;4.27;;;2.93;;
71655;SDS011;59497;48.798;8.816;2022-07-17T03:00:05;3.07;;;2.77;;
71655;SDS011;59497;48.798;8.816;2022-07-17T03:02:31;4.32;;;2.90;;
71655;SDS011;59497;48.798;8.816;2022-07-17T03:04:56;3.10;;;2.80;;
71655;SDS011;59497;48.798;8.816;2022-07-17T03:07:21;3.58;;;3.08;;
71655;SDS011;59497;48.798;8.816;2022-07-17T03:09:46;4.72;;;3.50;;
71655;SDS011;59497;48.798;8.816;2022-07-17T03:12:11;3.97;;;2.97;;
71655;SDS011;59497;48.798;8.816;2022-07-17T03:14:37;3.10;;;2.80;;
71655;SDS011;59497;48.798;8.816;2022-07-17T03:17:02;3.80;;;3.07;;
71655;SDS011;59497;48.798;8.816;2022-07-17T03:19:27;3.93;;;3.40;;
71655;SDS011;59497;48.798;8.816;2022-07-17T03:21:53;4.60;;;2.80;;
71655;SDS011;59497;48.798;8.816;2022-07-17T03:24:18;4.57;;;2.93;;
71655;SDS011;59497;48.798;8.816;2022-07-17T03:26:43;3.17;;;2.87;;
71655;SDS011;59497;48.798;8.816;2022-07-17T03:29:08;3.57;;;3.13;;
71655;SDS011;59497;48.798;8.816;2022-07-17T03:31:33;3.40;;;3.10;;
71655;SDS011;59497;48.798;8.816;2022-07-17T03:33:58;3.50;;;2.87;;
71655;SDS011;59497;48.798;8.816;2022-07-17T03:36:24;2.90;;;2.60;;
71655;SDS011;59497;48.798;8.816;2022-07-17T03:38:49;3.43;;;2.60;;
71655;SDS011;59497;48.798;8.816;2022-07-17T03:41:14;3.77;;;3.40;;
71655;SDS011;59497;48.798;8.816;2022-07-17T03:43:39;4.23;;;2.97;;
71655;SDS011;59497;48.798;8.816;2022-07-17T03:46:04;3.30;;;3.00;;
71655;SDS011;59497;48.798;8.816;2022-07-17T03:48:30;3.63;;;3.33;;
71655;SDS011;59497;48.798;8.816;2022-07-17T03:50:55;3.35;;;3.05;;
71655;SDS011;59497;48.798;8.816;2022-07-17T03:53:20;5.10;;;3.10;;
71655;SDS011;59497;48.798;8.816;2022-07-17T03:55:45;3.90;;;3.50;;
71655;SDS011;59497;48.798;8.816;2022-07-17T03:58:10;2.80;;;2.60;;
71655;SDS011;59497;48.798;8.816;2022-07-17T04:00:35;4.43;;;2.90;;
71655;SDS011;59497;48.798;8.816;2022-07-17T04:03:01;3.30;;;2.73;;
71655;SDS011;59497;48.798;8.816;2022-07-17T04:05:26;3.10;;;2.80;;
71655;SDS011;59497;48.798;8.816;2022-07-17T04:07:51;3.15;;;2.80;;
71655;SDS011;59497;48.798;8.816;2022-07-17T04:10:17;3.13;;;2.80;;
71655;SDS011;59497;48.798;8.816;2022-07-17T04:12:42;2.77;;;2.40;;
71655;SDS011;59497;48.798;8.816;2022-07-17T04:15:07;3.53;;;3.00;;
71655;SDS011;59497;48.798;8.816;2022-07-17T04:17:33;3.60;;;3.30;;
71655;SDS011;59497;48.798;8.816;2022-07-17T04:19:58;3.33;;;2.77;;
71655;SDS011;59497;48.798;8.816;2022-07-17T04:22:23;3.27;;;2.77;;
71655;SDS011;59497;48.798;8.816;2022-07-17T04:24:48;2.97;;;2.70;;
71655;SDS011;59497;48.798;8.816;2022-07-17T04:27:14;3.87;;;2.73;;
71655;SDS011;59497;48.798;8.816;2022-07-17T04:29:39;3.30;;;2.90;;
71655;SDS011;59497;48.798;8.816;2022-07-17T04:32:04;4.50;;;3.27;;
71655;SDS011;59497;48.798;8.816;2022-07-17T04:34:30;3.23;;;2.93;;
71655;SDS011;59497;48.798;8.816;2022-07-17T04:36:57;3.08;;;2.60;;
71655;SDS011;59497;48.798;8.816;2022-07-17T04:39:22;3.53;;;2.85;;
71655;SDS011;59497;48.798;8.816;2022-07-17T04:41:48;3.80;;;2.93;;
71655;SDS011;59497;48.798;8.816;2022-07-17T04:44:13;3.67;;;3.20;;
71655;SDS011;59497;48.798;8.816;2022-07-17T04:46:38;3.20;;;2.83;;
71655;SDS011;59497;48.798;8.816;2022-07-17T04:49:03;3.33;;;2.97;;
71655;SDS011;59497;48.798;8.816;2022-07-17T04:51:28;4.80;;;2.90;;
71655;SDS011;59497;48.798;8.816;2022-07-17T04:53:54;3.83;;;3.40;;
71655;SDS011;59497;48.798;8.816;2022-07-17T04:56:19;4.37;;;3.53;;
71655;SDS011;59497;48.798;8.816;2022-07-17T04:58:44;4.50;;;3.40;;
71655;SDS011;59497;48.798;8.816;2022-07-17T05:01:09;4.07;;;3.60;;
71655;SDS011;59497;48.798;8.816;2022-07-17T05:03:34;5.93;;;3.53;;
71655;SDS011;59497;48.798;8.816;2022-07-17T05:05:59;3.50;;;3.20;;
71655;SDS011;59497;48.798;8.816;2022-07-17T05:08:25;3.90;;;3.50;;
71655;SDS011;59497;48.798;8.816;2022-07-17T05:10:50;3.60;;;3.00;;
71655;SDS011;59497;48.798;8.816;2022-07-17T05:13:15;3.50;;;3.20;;
71655;SDS011;59497;48.798;8.816;2022-07-17T05:15:40;3.43;;;3.13;;
71655;SDS011;59497;48.798;8.816;2022-07-17T05:18:05;5.20;;;3.35;;
71655;SDS011;59497;48.798;8.816;2022-07-17T05:20:31;4.63;;;3.67;;
71655;SDS011;59497;48.798;8.816;2022-07-17T05:22:56;5.20;;;3.60;;
71655;SDS011;59497;48.798;8.816;2022-07-17T05:25:21;4.90;;;3.80;;
71655;SDS011;59497;48.798;8.816;2022-07-17T05:27:46;4.83;;;4.00;;
71655;SDS011;59497;48.798;8.816;2022-07-17T05:30:12;4.57;;;3.63;;
71655;SDS011;59497;48.798;8.816;2022-07-17T05:32:37;3.83;;;3.10;;
71655;SDS011;59497;48.798;8.816;2022-07-17T05:35:02;4.77;;;3.37;;
71655;SDS011;59497;48.798;8.816;2022-07-17T05:37:27;4.67;;;3.30;;
71655;SDS011;59497;48.798;8.816;2022-07-17T05:39:52;4.10;;;3.30;;
71655;SDS011;59497;48.798;8.816;2022-07-17T05:42:18;4.57;;;3.60;;
71655;SDS011;59497;48.798;8.816;2022-07-17T05:44:43;3.80;;;3.50;;
71655;SDS011;59497;48.798;8.816;2022-07-17T05:47:08;3.90;;;3.42;;
71655;SDS011;59497;48.798;8.816;2022-07-17T05:49:33;3.80;;;3.50;;
71655;SDS011;59497;48.798;8.816;2022-07-17T05:51:58;4.10;;;3.80;;
71655;SDS011;59497;48.798;8.816;2022-07-17T05:54:23;4.18;;;3.67;;
71655;SDS011;59497;48.798;8.816;2022-07-17T05:56:49;6.00;;;4.37;;
71655;SDS011;59497;48.798;8.816;2022-07-17T05:59:14;3.80;;;3.30;;
71655;SDS011;59497;48.798;8.816;2022-07-17T06:01:39;4.03;;;3.20;;
71655;SDS011;59497;48.798;8.816;2022-07-17T06:04:04;3.20;;;2.90;;
71655;SDS011;59497;48.798;8.816;2022-07-17T06:06:30;4.03;;;3.27;;
71655;SDS011;59497;48.798;8.816;2022-07-17T06:08:55;3.93;;;3.53;;
71655;SDS011;59497;48.798;8.816;2022-07-17T06:11:20;4.47;;;3.67;;
71655;SDS011;59497;48.798;8.816;2022-07-17T06:13:45;4.50;;;3.20;;
71655;SDS011;59497;48.798;8.816;2022-07-17T06:16:10;3.47;;;3.17;;
71655;SDS011;59497;48.798;8.816;2022-07-17T06:18:35;3.90;;;3.60;;
71655;SDS011;59497;48.798;8.816;2022-07-17T06:21:01;3.90;;;3.50;;
71655;SDS011;59497;48.798;8.816;2022-07-17T06:23:26;3.33;;;3.03;;
71655;SDS011;59497;48.798;8.816;2022-07-17T06:25:51;3.20;;;2.73;;
71655;SDS011;59497;48.798;8.816;2022-07-17T06:28:16;5.90;;;3.37;;
71655;SDS011;59497;48.798;8.816;2022-07-17T06:30:41;3.93;;;3.53;;
71655;SDS011;59497;48.798;8.816;2022-07-17T06:33:06;3.20;;;2.97;;
71655;SDS011;59497;48.798;8.816;2022-07-17T06:35:32;3.38;;;3.08;;
71655;SDS011;59497;48.798;8.816;2022-07-17T06:37:59;3.22;;;2.90;;
71655;SDS011;59497;48.798;8.816;2022-07-17T06:40:24;3.23;;;3.00;;
71655;SDS011;59497;48.798;8.816;2022-07-17T06:42:49;3.03;;;2.73;;
71655;SDS011;59497;48.798;8.816;2022-07-17T06:45:14;3.43;;;3.20;;
71655;SDS011;59497;48.798;8.816;2022-07-17T06:47:39;3.63;;;3.25;;
71655;SDS011;59497;48.798;8.816;2022-07-17T06:50:04;3.47;;;3.17;;
71655;SDS011;59497;48.798;8.816;2022-07-17T06:52:30;3.57;;;3.23;;
71655;SDS011;59497;48.798;8.816;2022-07-17T06:54:55;3.40;;;3.10;;
71655;SDS011;59497;48.798;8.816;2022-07-17T06:57:20;3.77;;;3.10;;
71655;SDS011;59497;48.798;8.816;2022-07-17T06:59:45;3.80;;;3.13;;
71655;SDS011;59497;48.798;8.816;2022-07-17T07:02:10;2.93;;;2.70;;
71655;SDS011;59497;48.798;8.816;2022-07-17T07:04:36;2.80;;;2.60;;
71655;SDS011;59497;48.798;8.816;2022-07-17T07:07:01;3.50;;;3.10;;
71655;SDS011;59497;48.798;8.816;2022-07-17T07:09:26;6.17;;;2.83;;
71655;SDS011;59497;48.798;8.816;2022-07-17T07:11:51;3.13;;;2.83;;
71655;SDS011;59497;48.798;8.816;2022-07-17T07:14:16;3.27;;;2.97;;
71655;SDS011;59497;48.798;8.816;2022-07-17T07:16:42;2.95;;;2.65;;
71655;SDS011;59497;48.798;8.816;2022-07-17T07:19:07;2.70;;;2.50;;
71655;SDS011;59497;48.798;8.816;2022-07-17T07:21:32;2.63;;;2.43;;
71655;SDS011;59497;48.798;8.816;2022-07-17T07:23:57;3.17;;;2.60;;
71655;SDS011;59497;48.798;8.816;2022-07-17T07:26:22;3.22;;;2.92;;
71655;SDS011;59497;48.798;8.816;2022-07-17T07:28:48;3.15;;;2.65;;
71655;SDS011;59497;48.798;8.816;2022-07-17T07:31:13;3.93;;;2.70;;
71655;SDS011;59497;48.798;8.816;2022-07-17T07:33:39;2.80;;;2.60;;
71655;SDS011;59497;48.798;8.816;2022-07-17T07:36:04;3.00;;;2.57;;
71655;SDS011;59497;48.798;8.816;2022-07-17T07:38:29;3.00;;;2.70;;
71655;SDS011;59497;48.798;8.816;2022-07-17T07:40:54;2.85;;;2.30;;
71655;SDS011;59497;48.798;8.816;2022-07-17T07:43:20;2.73;;;2.20;;
71655;SDS011;59497;48.798;8.816;2022-07-17T07:45:45;3.25;;;2.88;;
71655;SDS011;59497;48.798;8.816;2022-07-17T07:48:10;2.57;;;2.30;;
71655;SDS011;59497;48.798;8.816;2022-07-17T07:50:35;2.37;;;2.17;;
71655;SDS011;59497;48.798;8.816;2022-07-17T07:53:01;2.30;;;2.10;;
71655;SDS011;59497;48.798;8.816;2022-07-17T07:55:26;4.28;;;2.60;;
71655;SDS011;59497;48.798;8.816;2022-07-17T07:58:03;2.60;;;2.40;;
71655;SDS011;59497;48.798;8.816;2022-07-17T08:00:29;2.77;;;2.37;;
71655;SDS011;59497;48.798;8.816;2022-07-17T08:02:54;2.63;;;2.27;;
71655;SDS011;59497;48.798;8.816;2022-07-17T08:05:19;2.70;;;2.50;;
71655;SDS011;59497;48.798;8.816;2022-07-17T08:07:45;2.90;;;2.33;;
71655;SDS011;59497;48.798;8.816;2022-07-17T08:10:10;4.45;;;2.53;;
71655;SDS011;59497;48.798;8.816;2022-07-17T08:12:35;2.57;;;2.37;;
71655;SDS011;59497;48.798;8.816;2022-07-17T08:15:00;3.23;;;2.40;;
71655;SDS011;59497;48.798;8.816;2022-07-17T08:17:26;2.47;;;2.27;;
71655;SDS011;59497;48.798;8.816;2022-07-17T08:19:51;3.67;;;2.30;;
71655;SDS011;59497;48.798;8.816;2022-07-17T08:22:16;2.70;;;2.50;;
71655;SDS011;59497;48.798;8.816;2022-07-17T08:24:41;4.03;;;2.77;;
71655;SDS011;59497;48.798;8.816;2022-07-17T08:27:06;3.33;;;2.40;;
71655;SDS011;59497;48.798;8.816;2022-07-17T08:29:32;2.60;;;2.40;;
71655;SDS011;59497;48.798;8.816;2022-07-17T08:31:57;2.53;;;2.30;;
71655;SDS011;59497;48.798;8.816;2022-07-17T08:34:22;2.50;;;2.30;;
71655;SDS011;59497;48.798;8.816;2022-07-17T08:36:47;2.43;;;2.20;;
71655;SDS011;59497;48.798;8.816;2022-07-17T08:39:12;2.57;;;2.30;;
71655;SDS011;59497;48.798;8.816;2022-07-17T08:41:38;2.60;;;2.40;;
71655;SDS011;59497;48.798;8.816;2022-07-17T08:44:04;3.23;;;2.50;;
71655;SDS011;59497;48.798;8.816;2022-07-17T08:46:29;3.42;;;2.30;;
71655;SDS011;59497;48.798;8.816;2022-07-17T08:48:56;2.83;;;2.63;;
71655;SDS011;59497;48.798;8.816;2022-07-17T08:51:22;2.70;;;2.50;;
71655;SDS011;59497;48.798;8.816;2022-07-17T08:53:47;2.83;;;2.63;;
71655;SDS011;59497;48.798;8.816;2022-07-17T08:56:12;2.95;;;2.75;;
71655;SDS011;59497;48.798;8.816;2022-07-17T08:58:38;2.37;;;2.20;;
71655;SDS011;59497;48.798;8.816;2022-07-17T09:01:03;2.83;;;2.63;;
71655;SDS011;59497;48.798;8.816;2022-07-17T09:03:28;2.97;;;2.77;;
71655;SDS011;59497;48.798;8.816;2022-07-17T09:05:54;2.50;;;2.30;;
71655;SDS011;59497;48.798;8.816;2022-07-17T09:08:20;2.47;;;2.27;;
71655;SDS011;59497;48.798;8.816;2022-07-17T09:10:46;3.08;;;2.60;;
71655;SDS011;59497;48.798;8.816;2022-07-17T09:13:22;2.95;;;2.65;;
71655;SDS011;59497;48.798;8.816;2022-07-17T09:15:48;2.70;;;2.50;;
71655;SDS011;59497;48.798;8.816;2022-07-17T09:18:14;2.17;;;2.03;;
71655;SDS011;59497;48.798;8.816;2022-07-17T09:20:46;2.58;;;2.38;;
71655;SDS011;59497;48.798;8.816;2022-07-17T09:23:11;3.10;;;2.90;;
71655;SDS011;59497;48.798;8.816;2022-07-17T09:25:38;2.83;;;2.63;;
71655;SDS011;59497;48.798;8.816;2022-07-17T09:28:04;2.58;;;2.35;;
71655;SDS011;59497;48.798;8.816;2022-07-17T09:30:29;2.50;;;2.30;;
71655;SDS011;59497;48.798;8.816;2022-07-17T09:32:55;2.93;;;2.70;;
71655;SDS011;59497;48.798;8.816;2022-07-17T09:35:20;2.83;;;2.63;;
71655;SDS011;59497;48.798;8.816;2022-07-17T09:37:46;4.43;;;2.72;;
71655;SDS011;59497;48.798;8.816;2022-07-17T09:40:12;2.83;;;2.63;;
71655;SDS011;59497;48.798;8.816;2022-07-17T09:42:57;3.20;;;2.90;;
71655;SDS011;59497;48.798;8.816;2022-07-17T09:45:22;2.50;;;2.30;;
71655;SDS011;59497;48.798;8.816;2022-07-17T09:47:47;3.13;;;2.57;;
71655;SDS011;59497;48.798;8.816;2022-07-17T09:50:13;2.43;;;2.17;;
71655;SDS011;59497;48.798;8.816;2022-07-17T09:52:38;3.53;;;2.30;;
71655;SDS011;59497;48.798;8.816;2022-07-17T09:55:04;2.50;;;2.30;;
71655;SDS011;59497;48.798;8.816;2022-07-17T09:57:30;2.47;;;2.28;;
71655;SDS011;59497;48.798;8.816;2022-07-17T09:59:56;2.42;;;2.22;;
71655;SDS011;59497;48.798;8.816;2022-07-17T10:02:23;2.30;;;2.10;;
71655;SDS011;59497;48.798;8.816;2022-07-17T10:04:49;2.30;;;2.10;;
71655;SDS011;59497;48.798;8.816;2022-07-17T10:07:14;2.03;;;1.93;;
71655;SDS011;59497;48.798;8.816;2022-07-17T10:09:40;2.30;;;2.10;;
71655;SDS011;59497;48.798;8.816;2022-07-17T10:12:06;2.03;;;1.92;;
71655;SDS011;59497;48.798;8.816;2022-07-17T10:14:31;1.80;;;1.70;;
71655;SDS011;59497;48.798;8.816;2022-07-17T10:17:05;3.83;;;2.60;;
71655;SDS011;59497;48.798;8.816;2022-07-17T10:19:31;2.85;;;2.65;;
71655;SDS011;59497;48.798;8.816;2022-07-17T10:21:57;2.60;;;2.50;;
71655;SDS011;59497;48.798;8.816;2022-07-17T10:24:23;2.92;;;2.72;;
71655;SDS011;59497;48.798;8.816;2022-07-17T10:26:49;2.85;;;1.90;;
71655;SDS011;59497;48.798;8.816;2022-07-17T10:29:28;2.37;;;2.17;;
71655;SDS011;59497;48.798;8.816;2022-07-17T10:31:54;1.85;;;1.70;;
71655;SDS011;59497;48.798;8.816;2022-07-17T10:34:21;1.90;;;1.80;;
71655;SDS011;59497;48.798;8.816;2022-07-17T10:36:47;1.90;;;1.80;;
71655;SDS011;59497;48.798;8.816;2022-07-17T10:39:15;2.10;;;2.00;;
71655;SDS011;59497;48.798;8.816;2022-07-17T10:41:41;1.88;;;1.77;;
71655;SDS011;59497;48.798;8.816;2022-07-17T10:44:07;2.30;;;2.20;;
71655;SDS011;59497;48.798;8.816;2022-07-17T10:46:32;2.23;;;2.13;;
71655;SDS011;59497;48.798;8.816;2022-07-17T10:48:58;1.80;;;1.70;;
71655;SDS011;59497;48.798;8.816;2022-07-17T10:51:26;1.98;;;1.88;;
71655;SDS011;59497;48.798;8.816;2022-07-17T10:53:57;1.98;;;1.88;;
71655;SDS011;59497;48.798;8.816;2022-07-17T10:56:25;2.15;;;1.95;;
71655;SDS011;59497;48.798;8.816;2022-07-17T10:58:51;1.73;;;1.63;;
71655;SDS011;59497;48.798;8.816;2022-07-17T11:01:17;2.92;;;1.92;;
71655;SDS011;59497;48.798;8.816;2022-07-17T11:03:43;1.90;;;1.77;;
71655;SDS011;59497;48.798;8.816;2022-07-17T11:06:10;1.83;;;1.73;;
71655;SDS011;59497;48.798;8.816;2022-07-17T11:08:39;2.38;;;2.17;;
71655;SDS011;59497;48.798;8.816;2022-07-17T11:11:05;2.15;;;2.05;;
71655;SDS011;59497;48.798;8.816;2022-07-17T11:13:30;2.13;;;1.93;;
71655;SDS011;59497;48.798;8.816;2022-07-17T11:15:55;2.30;;;2.00;;
71655;SDS011;59497;48.798;8.816;2022-07-17T11:18:21;2.07;;;1.97;;
71655;SDS011;59497;48.798;8.816;2022-07-17T11:20:47;2.30;;;2.20;;
71655;SDS011;59497;48.798;8.816;2022-07-17T11:23:13;2.50;;;2.30;;
71655;SDS011;59497;48.798;8.816;2022-07-17T11:25:38;2.03;;;1.90;;
71655;SDS011;59497;48.798;8.816;2022-07-17T11:28:04;2.27;;;2.10;;
71655;SDS011;59497;48.798;8.816;2022-07-17T11:30:29;2.40;;;2.00;;
71655;SDS011;59497;48.798;8.816;2022-07-17T11:32:57;3.50;;;2.40;;
71655;SDS011;59497;48.798;8.816;2022-07-17T11:35:24;2.80;;;2.60;;
71655;SDS011;59497;48.798;8.816;2022-07-17T11:37:49;2.50;;;2.30;;
71655;SDS011;59497;48.798;8.816;2022-07-17T11:40:15;1.90;;;1.80;;
71655;SDS011;59497;48.798;8.816;2022-07-17T11:42:40;2.43;;;2.23;;
71655;SDS011;59497;48.798;8.816;2022-07-17T11:45:05;1.97;;;1.80;;
71655;SDS011;59497;48.798;8.816;2022-07-17T11:47:31;2.60;;;2.50;;
71655;SDS011;59497;48.798;8.816;2022-07-17T11:52:38;2.15;;;1.73;;
71655;SDS011;59497;48.798;8.816;2022-07-17T11:55:04;2.20;;;2.10;;
71655;SDS011;59497;48.798;8.816;2022-07-17T11:57:29;2.17;;;2.07;;
71655;SDS011;59497;48.798;8.816;2022-07-17T12:00:06;2.05;;;1.70;;
71655;SDS011;59497;48.798;8.816;2022-07-17T12:02:32;2.67;;;2.47;;
71655;SDS011;59497;48.798;8.816;2022-07-17T12:04:57;1.97;;;1.87;;
71655;SDS011;59497;48.798;8.816;2022-07-17T12:07:25;2.20;;;2.10;;
71655;SDS011;59497;48.798;8.816;2022-07-17T12:09:50;2.10;;;2.00;;
71655;SDS011;59497;48.798;8.816;2022-07-17T12:12:23;2.57;;;2.43;;
71655;SDS011;59497;48.798;8.816;2022-07-17T12:17:16;2.22;;;2.00;;
71655;SDS011;59497;48.798;8.816;2022-07-17T12:19:42;1.60;;;1.50;;
71655;SDS011;59497;48.798;8.816;2022-07-17T12:22:07;2.30;;;2.10;;
71655;SDS011;59497;48.798;8.816;2022-07-17T12:24:33;2.30;;;2.10;;
71655;SDS011;59497;48.798;8.816;2022-07-17T12:27:01;2.28;;;2.17;;
71655;SDS011;59497;48.798;8.816;2022-07-17T12:29:27;1.47;;;1.37;;
71655;SDS011;59497;48.798;8.816;2022-07-17T12:31:59;2.33;;;2.05;;
71655;SDS011;59497;48.798;8.816;2022-07-17T12:34:25;1.83;;;1.73;;
71655;SDS011;59497;48.798;8.816;2022-07-17T12:36:51;1.95;;;1.85;;
71655;SDS011;59497;48.798;8.816;2022-07-17T12:39:16;2.55;;;2.35;;
71655;SDS011;59497;48.798;8.816;2022-07-17T12:41:41;2.20;;;2.10;;
71655;SDS011;59497;48.798;8.816;2022-07-17T12:44:07;2.30;;;2.10;;
71655;SDS011;59497;48.798;8.816;2022-07-17T12:46:32;1.90;;;1.80;;
71655;SDS011;59497;48.798;8.816;2022-07-17T12:48:57;2.30;;;2.10;;
71655;SDS011;59497;48.798;8.816;2022-07-17T12:51:22;2.27;;;2.10;;
71655;SDS011;59497;48.798;8.816;2022-07-17T12:53:47;2.80;;;2.13;;
71655;SDS011;59497;48.798;8.816;2022-07-17T12:56:13;2.00;;;1.90;;
71655;SDS011;59497;48.798;8.816;2022-07-17T12:58:38;2.50;;;2.30;;
71655;SDS011;59497;48.798;8.816;2022-07-17T13:01:04;2.38;;;2.28;;
71655;SDS011;59497;48.798;8.816;2022-07-17T13:03:29;2.70;;;2.50;;
71655;SDS011;59497;48.798;8.816;2022-07-17T13:05:54;2.33;;;2.13;;
71655;SDS011;59497;48.798;8.816;2022-07-17T13:08:19;2.57;;;2.47;;
71655;SDS011;59497;48.798;8.816;2022-07-17T13:10:45;2.57;;;2.37;;
71655;SDS011;59497;48.798;8.816;2022-07-17T13:13:10;2.33;;;2.23;;
71655;SDS011;59497;48.798;8.816;2022-07-17T13:15:35;1.77;;;1.67;;
71655;SDS011;59497;48.798;8.816;2022-07-17T13:18:00;2.30;;;2.10;;
71655;SDS011;59497;48.798;8.816;2022-07-17T13:20:26;2.83;;;2.63;;
71655;SDS011;59497;48.798;8.816;2022-07-17T13:22:51;2.03;;;1.92;;
71655;SDS011;59497;48.798;8.816;2022-07-17T13:25:17;2.37;;;2.17;;
71655;SDS011;59497;48.798;8.816;2022-07-17T13:27:42;3.23;;;3.03;;
71655;SDS011;59497;48.798;8.816;2022-07-17T13:30:07;2.10;;;1.90;;
71655;SDS011;59497;48.798;8.816;2022-07-17T13:32:33;3.43;;;3.23;;
71655;SDS011;59497;48.798;8.816;2022-07-17T13:34:58;1.90;;;1.80;;
71655;SDS011;59497;48.798;8.816;2022-07-17T13:37:23;2.45;;;2.35;;
71655;SDS011;59497;48.798;8.816;2022-07-17T13:39:48;2.17;;;2.08;;
71655;SDS011;59497;48.798;8.816;2022-07-17T13:42:13;2.73;;;1.80;;
71655;SDS011;59497;48.798;8.816;2022-07-17T13:44:38;2.17;;;2.07;;
71655;SDS011;59497;48.798;8.816;2022-07-17T13:47:04;1.87;;;1.77;;
71655;SDS011;59497;48.798;8.816;2022-07-17T13:49:29;2.07;;;1.97;;
71655;SDS011;59497;48.798;8.816;2022-07-17T13:51:54;2.20;;;2.00;;
71655;SDS011;59497;48.798;8.816;2022-07-17T13:54:19;2.45;;;2.30;;
71655;SDS011;59497;48.798;8.816;2022-07-17T13:56:45;2.50;;;2.30;;
71655;SDS011;59497;48.798;8.816;2022-07-17T13:59:10;2.63;;;2.42;;
71655;SDS011;59497;48.798;8.816;2022-07-17T14:01:35;2.05;;;1.95;;
71655;SDS011;59497;48.798;8.816;2022-07-17T14:04:01;2.07;;;1.97;;
71655;SDS011;59497;48.798;8.816;2022-07-17T14:06:26;1.77;;;1.67;;
71655;SDS011;59497;48.798;8.816;2022-07-17T14:08:51;3.17;;;2.90;;
71655;SDS011;59497;48.798;8.816;2022-07-17T14:11:16;3.00;;;2.80;;
71655;SDS011;59497;48.798;8.816;2022-07-17T14:13:41;2.67;;;2.47;;
71655;SDS011;59497;48.798;8.816;2022-07-17T14:16:07;2.60;;;2.50;;
71655;SDS011;59497;48.798;8.816;2022-07-17T14:18:32;2.57;;;2.47;;
71655;SDS011;59497;48.798;8.816;2022-07-17T14:20:57;2.92;;;2.72;;
71655;SDS011;59497;48.798;8.816;2022-07-17T14:23:23;2.57;;;2.37;;
71655;SDS011;59497;48.798;8.816;2022-07-17T14:25:48;1.93;;;1.83;;
71655;SDS011;59497;48.798;8.816;2022-07-17T14:28:13;2.67;;;2.47;;
71655;SDS011;59497;48.798;8.816;2022-07-17T14:30:39;2.20;;;2.10;;
71655;SDS011;59497;48.798;8.816;2022-07-17T14:33:04;2.27;;;2.17;;
71655;SDS011;59497;48.798;8.816;2022-07-17T14:35:30;2.90;;;2.70;;
71655;SDS011;59497;48.798;8.816;2022-07-17T14:37:56;2.83;;;2.70;;
71655;SDS011;59497;48.798;8.816;2022-07-17T14:40:21;2.17;;;1.97;;
71655;SDS011;59497;48.798;8.816;2022-07-17T14:42:46;2.93;;;2.73;;
71655;SDS011;59497;48.798;8.816;2022-07-17T14:45:11;2.43;;;2.23;;